山口宇部空港の過去48時間の天気

山口宇部空港 (Yamaguchi-Ube, Honsh)

現在時刻: 9/23 09:22 JST (9/23 00:22 UTC) 以下の時間は現地時間です。

過去48時間のMETAR気象情報
時間 風向 風速(m/s) 視程 気温(℃) 湿度(%) 気圧(hPa) 天気現象
23 09:00 西南西 5 10km以上 27 74 1015
23 08:00 西南西 6 10km以上 26 79 1015
23 07:00 西南西 7 10km以上 25 78 1014
23 06:30 西南西 6 10km以上 25 78 1014
22 21:00 北北西 2 10km以上 25 74 1012
22 20:00 西 4 10km以上 26 65 1011
22 19:00 北西 2 10km以上 26 65 1011
22 18:00 西 5 10km以上 26 65 1010
22 17:00 西北西 4 10km以上 27 62 1010
22 16:00 西北西 6 10km以上 29 48 1010
22 15:00 西北西 6 10km以上 30 46 1009
22 14:00 北西 5 10km以上 29 43 1009
22 13:00 西 5 10km以上 30 49 1009
22 12:00 西 5 10km以上 28 62 1010
22 11:00 西 5 10km以上 28 66 1010
22 10:00 西 6 10km以上 27 66 1010
22 09:00 西 6 10km以上 26 74 1010
22 08:00 西北西 5 10km以上 25 83 1009
22 07:00 西 4 10km以上 24 89 1009
22 06:30 西北西 4 10km以上 24 89 1009 周辺でしゅう雨
21 21:00 南東 8 10km以上 26 84 1008
21 20:00 南東 7 10km以上 26 84 1008
21 19:00 東南東 5 10km以上 26 84 1008
21 18:00 6 10km以上 26 84 1008
21 17:00 8 10km以上 27 79 1007
21 16:00 8 10km以上 27 79 1008
21 15:00 7 10km以上 27 74 1008
21 14:00 7 10km以上 27 74 1009
21 13:00 6 10km以上 28 70 1010
21 12:00 7 10km以上 27 70 1010
21 11:00 7 10km以上 27 74 1011
21 10:00 東南東 6 10km以上 26 74 1012
RJDC 230000Z 25010KT 9999 FEW030 SCT040 27/22 Q1015
RJDC 222300Z 24012KT 9999 FEW030 SCT/// 26/22 Q1015
RJDC 222200Z 24013KT 9999 FEW030 SCT035 25/21 Q1014
RJDC 222130Z 24011KT 9999 FEW025 SCT030 25/21 Q1014
RJDC 221200Z 33003KT 280V360 CAVOK 25/20 Q1012
RJDC 221100Z 28007KT CAVOK 26/19 Q1011
RJDC 221000Z 31004KT 270V340 9999 FEW030 26/19 Q1011
RJDC 220900Z 28009KT 250V320 9999 FEW030 26/19 Q1010
RJDC 220800Z 30008KT 270V340 9999 FEW030 27/19 Q1010
RJDC 220700Z 30011KT 260V360 9999 FEW030 29/17 Q1010
RJDC 220600Z 29012KT 270V350 9999 FEW030 30/17 Q1009
RJDC 220500Z 31009KT 260V360 9999 FEW030 29/15 Q1009
RJDC 220400Z 28010KT 250V340 9999 FEW035 30/18 Q1009
RJDC 220300Z 26009KT 9999 FEW030 28/20 Q1010
RJDC 220200Z 27010KT 250V310 9999 FEW030 28/21 Q1010
RJDC 220100Z 27012KT 9999 FEW025 27/20 Q1010
RJDC 220000Z 28011KT 9999 FEW015 SCT040 26/21 Q1010
RJDC 212300Z 30009KT 260V330 9999 FEW010 BKN040 25/22 Q1009
RJDC 212200Z 28008KT 9999 FEW010 SCT030 BKN140 24/22 Q1009
RJDC 212130Z 30007KT 260V340 9999 VCSH FEW010 BKN035 BKN050 24/22 Q1009
RJDC 211200Z 14016KT 9999 FEW015 BKN070 26/23 Q1008
RJDC 211100Z 14013KT 9999 FEW015 SCT050 BKN/// 26/23 Q1008
RJDC 211000Z 12009KT 9999 FEW015 SCT100 BKN/// 26/23 Q1008
RJDC 210900Z 10011KT 9999 FEW020 SCT/// 26/23 Q1008
RJDC 210800Z 10015KT 9999 FEW025 27/23 Q1007
RJDC 210700Z 09016KT 9999 FEW025 27/23 Q1008
RJDC 210600Z 09014KT 9999 FEW025 SCT090 27/22 Q1008
RJDC 210500Z 09013KT 9999 FEW025 SCT090 27/22 Q1009
RJDC 210400Z 09011KT 9999 FEW020 SCT070 28/22 Q1010
RJDC 210300Z 10014KT 9999 FEW020 BKN070 27/21 Q1010
RJDC 210200Z 10014KT 9999 FEW020 BKN080 27/22 Q1011
RJDC 210100Z 12011KT 9999 FEW020 BKN050 26/21 Q1012